^^
Datos históricos de la estación: Murcia-Puente Tocinos
Diario Informe para Mayo 27, 2019 Unidades:  Ambas    Ingés   Métrico
Diario Semanal Mensual Anual
  Máxima: Mínima: Promedio:
Temperatura: 66.2 °F /  19 °C 46.9 °F /  8.3 °C 56.3 °F /  13.5 °C
Punto de rocio: 43.9 °F /  6.6 °C 29.7 °F /  -1.3 °C 36.5 °F /  2.5 °C
Humedad: 75% 31% 50%
Velocidad viento: 19.7mph /  31.7km/h - 7.7mph /  12.4km/h
Racha viento: 36mph /  57.9km/h - -
Viento- - OSO
Presión: 30 in /  1015.0 hPa 29.8 in /  1009.8 hPa -
Precipitación: 0 in /  0.0 mm    
 
 
Tabla de datos para Mayo 27, 2019
Hora Temperatura Punto de rocio Presión Viento Velocidad viento Racha viento Humedad Intensidad lluvia(por hora) Nubes
00:04 51.4 °F /  10.8 °C 43.9 °F /  6.6 °C 30in /  1014.4hPa SSE 5.2mph /  8.4km/h 10.4mph /  16.7km/h 75% 0in /  0.0mm
00:09 51.3 °F /  10.7 °C 43.7 °F /  6.5 °C 30in /  1014.4hPa Sur 5.3mph /  8.5km/h 10mph /  16.1km/h 75% 0in /  0.0mm
00:14 51.3 °F /  10.7 °C 43.5 °F /  6.4 °C 30in /  1014.4hPa Sur 5.4mph /  8.7km/h 8mph /  12.9km/h 75% 0in /  0.0mm
00:19 51.3 °F /  10.7 °C 43.5 °F /  6.4 °C 30in /  1014.4hPa Sur 4.8mph /  7.8km/h 7mph /  11.3km/h 75% 0in /  0.0mm
00:24 51.3 °F /  10.7 °C 43.5 °F /  6.4 °C 30in /  1014.3hPa Sur 4.3mph /  6.9km/h 8.5mph /  13.7km/h 75% 0in /  0.0mm
00:29 51.3 °F /  10.7 °C 43.5 °F /  6.4 °C 30in /  1014.3hPa Sur 4.8mph /  7.7km/h 9mph /  14.5km/h 74.9% 0in /  0.0mm
00:34 51.3 °F /  10.7 °C 43.3 °F /  6.3 °C 30in /  1014.3hPa Sur 5.2mph /  8.4km/h 8.5mph /  13.7km/h 74% 0in /  0.0mm
00:39 51.3 °F /  10.7 °C 43.3 °F /  6.3 °C 29.9in /  1014.1hPa Sur 5.5mph /  8.9km/h 9mph /  14.5km/h 74% 0in /  0.0mm
00:44 51.3 °F /  10.7 °C 43.3 °F /  6.3 °C 29.9in /  1014.1hPa Sur 5.9mph /  9.5km/h 9mph /  14.5km/h 74% 0in /  0.0mm
00:49 51.3 °F /  10.7 °C 43.2 °F /  6.2 °C 29.9in /  1014.1hPa Sur 5.3mph /  8.5km/h 7mph /  11.3km/h 74% 0in /  0.0mm
00:54 51.1 °F /  10.6 °C 43.3 °F /  6.3 °C 29.9in /  1014.0hPa SSO 4.7mph /  7.6km/h 7.4mph /  11.9km/h 74.8% 0in /  0.0mm
00:59 51.1 °F /  10.6 °C 43.2 °F /  6.2 °C 29.9in /  1014.0hPa Sur 5mph /  8km/h 8.5mph /  13.7km/h 74.3% 0in /  0.0mm
01:04 51.1 °F /  10.6 °C 43.2 °F /  6.2 °C 29.9in /  1014.0hPa Sur 5.2mph /  8.4km/h 9mph /  14.5km/h 74% 0in /  0.0mm
01:09 51.1 °F /  10.6 °C 43.2 °F /  6.2 °C 29.9in /  1013.8hPa Sur 5.2mph /  8.4km/h 9mph /  14.5km/h 74% 0in /  0.0mm
01:14 50.9 °F /  10.5 °C 43 °F /  6.1 °C 29.9in /  1013.8hPa SSE 5.2mph /  8.4km/h 8.1mph /  13km/h 74% 0in /  0.0mm
01:19 50.7 °F /  10.4 °C 42.8 °F /  6 °C 29.9in /  1013.8hPa Sur 5.3mph /  8.5km/h 9.2mph /  14.8km/h 74% 0in /  0.0mm
01:24 50.5 °F /  10.3 °C 42.6 °F /  5.9 °C 29.9in /  1013.7hPa Sur 5.4mph /  8.7km/h 9.2mph /  14.8km/h 74% 0in /  0.0mm
01:29 50.5 °F /  10.3 °C 42.6 °F /  5.9 °C 29.9in /  1013.7hPa SSO 5.7mph /  9.2km/h 9mph /  14.5km/h 74% 0in /  0.0mm
01:34 50.5 °F /  10.3 °C 42.6 °F /  5.9 °C 29.9in /  1013.7hPa SO 5.9mph /  9.5km/h 7mph /  11.3km/h 74% 0in /  0.0mm
01:39 50.5 °F /  10.3 °C 42.6 °F /  5.9 °C 29.9in /  1013.5hPa OSO 4.9mph /  7.9km/h 6mph /  9.7km/h 74.1% 0in /  0.0mm
01:44 50.5 °F /  10.3 °C 42.6 °F /  5.9 °C 29.9in /  1013.5hPa SO 4.3mph /  6.9km/h 6.2mph /  10km/h 74% 0in /  0.0mm
01:49 50.5 °F /  10.3 °C 42.4 °F /  5.8 °C 29.9in /  1013.5hPa SO 4.1mph /  6.6km/h 6mph /  9.7km/h 74% 0in /  0.0mm
01:54 50.4 °F /  10.2 °C 42.1 °F /  5.6 °C 29.9in /  1013.3hPa SO 4mph /  6.5km/h 6mph /  9.7km/h 73.2% 0in /  0.0mm
01:59 50.5 °F /  10.3 °C 42.3 °F /  5.7 °C 29.9in /  1013.3hPa SO 3.4mph /  5.4km/h 6.4mph /  10.3km/h 73% 0in /  0.0mm
02:04 50.5 °F /  10.3 °C 42.3 °F /  5.7 °C 29.9in /  1013.3hPa SSO 3.1mph /  5km/h 7mph /  11.3km/h 73% 0in /  0.0mm
02:09 50.7 °F /  10.4 °C 42.3 °F /  5.7 °C 29.9in /  1013.2hPa SSO 3.9mph /  6.2km/h 7mph /  11.3km/h 72.9% 0in /  0.0mm
02:14 50.7 °F /  10.4 °C 42.1 °F /  5.6 °C 29.9in /  1013.2hPa SO 4.3mph /  6.9km/h 8.1mph /  13km/h 72% 0in /  0.0mm
02:19 50.7 °F /  10.4 °C 41.9 °F /  5.5 °C 29.9in /  1013.2hPa SO 4.5mph /  7.3km/h 8mph /  12.9km/h 72% 0in /  0.0mm
02:24 50.5 °F /  10.3 °C 42.1 °F /  5.6 °C 29.9in /  1013.1hPa SO 4.7mph /  7.6km/h 10.4mph /  16.7km/h 72.6% 0in /  0.0mm
02:29 50.5 °F /  10.3 °C 41.7 °F /  5.4 °C 29.9in /  1013.1hPa SSO 5.5mph /  8.8km/h 10.4mph /  16.7km/h 72% 0in /  0.0mm
02:34 50.4 °F /  10.2 °C 41.7 °F /  5.4 °C 29.9in /  1013.1hPa SSO 5.9mph /  9.5km/h 9mph /  14.5km/h 72% 0in /  0.0mm
02:39 50.4 °F /  10.2 °C 41.7 °F /  5.4 °C 29.9in /  1012.9hPa Sur 5.9mph /  9.5km/h 9mph /  14.5km/h 72% 0in /  0.0mm
02:44 50.5 °F /  10.3 °C 41.7 °F /  5.4 °C 29.9in /  1012.9hPa Sur 5.9mph /  9.5km/h 7mph /  11.3km/h 72% 0in /  0.0mm
02:49 50.4 °F /  10.2 °C 41.7 °F /  5.4 °C 29.9in /  1012.9hPa SSO 4.5mph /  7.3km/h 6mph /  9.7km/h 72% 0in /  0.0mm
02:54 50.4 °F /  10.2 °C 41.7 °F /  5.4 °C 29.9in /  1012.7hPa Sur 3.6mph /  5.8km/h 6mph /  9.7km/h 72% 0in /  0.0mm
02:59 50.2 °F /  10.1 °C 41.5 °F /  5.3 °C 29.9in /  1012.7hPa SSO 2.5mph /  4km/h 7.4mph /  11.9km/h 72% 0in /  0.0mm
03:04 50 °F /  10 °C 41.4 °F /  5.2 °C 29.9in /  1012.8hPa SO 2mph /  3.2km/h 8.1mph /  13km/h 72.3% 0in /  0.0mm
03:09 49.8 °F /  9.9 °C 41.2 °F /  5.1 °C 29.9in /  1012.8hPa SO 4mph /  6.4km/h 9.7mph /  15.6km/h 72.2% 0in /  0.0mm
03:14 49.6 °F /  9.8 °C 41.2 °F /  5.1 °C 29.9in /  1012.8hPa SSO 5.2mph /  8.4km/h 10mph /  16.1km/h 72.7% 0in /  0.0mm
03:19 49.3 °F /  9.6 °C 41 °F /  5 °C 29.9in /  1012.8hPa SSO 5.2mph /  8.4km/h 9.7mph /  15.6km/h 73% 0in /  0.0mm
03:24 48.9 °F /  9.4 °C 40.8 °F /  4.9 °C 29.9in /  1012.7hPa SSO 5.2mph /  8.4km/h 10mph /  16.1km/h 73.7% 0in /  0.0mm
03:29 48.7 °F /  9.3 °C 40.8 °F /  4.9 °C 29.9in /  1012.7hPa SSO 5.3mph /  8.6km/h 8.1mph /  13km/h 74% 0in /  0.0mm
03:34 48.7 °F /  9.3 °C 40.8 °F /  4.9 °C 29.9in /  1012.7hPa Sur 5.4mph /  8.7km/h 8mph /  12.9km/h 74% 0in /  0.0mm
03:39 48.7 °F /  9.3 °C 40.8 °F /  4.9 °C 29.9in /  1012.5hPa SSO 5.3mph /  8.5km/h 8.5mph /  13.7km/h 74% 0in /  0.0mm
03:44 48.7 °F /  9.3 °C 40.8 °F /  4.9 °C 29.9in /  1012.5hPa SSO 5.2mph /  8.4km/h 9mph /  14.5km/h 73.8% 0in /  0.0mm
03:49 48.7 °F /  9.3 °C 40.6 °F /  4.8 °C 29.9in /  1012.5hPa SO 5.2mph /  8.4km/h 8mph /  12.9km/h 73.1% 0in /  0.0mm
03:54 48.9 °F /  9.4 °C 40.5 °F /  4.7 °C 29.9in /  1012.4hPa OSO 5.2mph /  8.4km/h 6mph /  9.7km/h 72.4% 0in /  0.0mm
03:59 48.9 °F /  9.4 °C 40.3 °F /  4.6 °C 29.9in /  1012.4hPa OSO 4.3mph /  7km/h 6mph /  9.7km/h 72% 0in /  0.0mm
04:04 48.9 °F /  9.4 °C 40.3 °F /  4.6 °C 29.9in /  1012.4hPa OSO 4mph /  6.5km/h 6.9mph /  11.1km/h 72% 0in /  0.0mm
04:09 48.9 °F /  9.4 °C 40.3 °F /  4.6 °C 29.9in /  1012.1hPa SO 3.5mph /  5.6km/h 7mph /  11.3km/h 72% 0in /  0.0mm
04:14 48.9 °F /  9.4 °C 40.1 °F /  4.5 °C 29.9in /  1012.1hPa SO 3.1mph /  5km/h 6.2mph /  10km/h 71.4% 0in /  0.0mm
04:19 49.1 °F /  9.5 °C 39.9 °F /  4.4 °C 29.9in /  1012.1hPa SSO 3.7mph /  5.9km/h 7.6mph /  12.2km/h 70.7% 0in /  0.0mm
04:24 49.3 °F /  9.6 °C 39.6 °F /  4.2 °C 29.9in /  1011.9hPa SO 4mph /  6.5km/h 8.1mph /  13km/h 69.4% 0in /  0.0mm
04:29 49.3 °F /  9.6 °C 39.6 °F /  4.2 °C 29.9in /  1011.9hPa SO 4.8mph /  7.7km/h 8.1mph /  13km/h 69% 0in /  0.0mm
04:34 49.5 °F /  9.7 °C 39.2 °F /  4 °C 29.9in /  1011.9hPa SO 5.2mph /  8.4km/h 8.5mph /  13.7km/h 67.7% 0in /  0.0mm
04:39 49.6 °F /  9.8 °C 38.7 °F /  3.7 °C 29.9in /  1011.7hPa SO 5.2mph /  8.4km/h 9.2mph /  14.8km/h 66% 0in /  0.0mm
04:44 49.8 °F /  9.9 °C 38.3 °F /  3.5 °C 29.9in /  1011.7hPa SO 5.2mph /  8.4km/h 9.7mph /  15.6km/h 64.7% 0in /  0.0mm
04:49 50.2 °F /  10.1 °C 38.3 °F /  3.5 °C 29.9in /  1011.7hPa SSO 5.3mph /  8.6km/h 10mph /  16.1km/h 63.6% 0in /  0.0mm
04:54 50.2 °F /  10.1 °C 38.1 °F /  3.4 °C 29.9in /  1011.4hPa SSO 5.4mph /  8.7km/h 9mph /  14.5km/h 63% 0in /  0.0mm
04:59 50.2 °F /  10.1 °C 38.1 °F /  3.4 °C 29.9in /  1011.4hPa Sur 4.7mph /  7.5km/h 7mph /  11.3km/h 63% 0in /  0.0mm
05:04 50.2 °F /  10.1 °C 38.1 °F /  3.4 °C 29.9in /  1011.4hPa SO 4.3mph /  6.9km/h 6mph /  9.7km/h 63% 0in /  0.0mm
05:09 50.2 °F /  10.1 °C 37.8 °F /  3.2 °C 29.9in /  1011.4hPa SO 3.5mph /  5.7km/h 6mph /  9.7km/h 62.3% 0in /  0.0mm
05:14 50 °F /  10 °C 37.4 °F /  3 °C 29.9in /  1011.4hPa SSO 3.1mph /  5km/h 7.6mph /  12.2km/h 61.9% 0in /  0.0mm
05:19 49.8 °F /  9.9 °C 37.2 °F /  2.9 °C 29.9in /  1011.4hPa SO 3.9mph /  6.2km/h 8.1mph /  13km/h 61.9% 0in /  0.0mm
05:24 49.8 °F /  9.9 °C 37.2 °F /  2.9 °C 29.9in /  1011.2hPa SSO 4.3mph /  6.9km/h 10.4mph /  16.7km/h 62% 0in /  0.0mm
05:29 49.8 °F /  9.9 °C 37 °F /  2.8 °C 29.9in /  1011.2hPa SO 4.9mph /  7.9km/h 10mph /  16.1km/h 61.3% 0in /  0.0mm
05:34 49.8 °F /  9.9 °C 37 °F /  2.8 °C 29.9in /  1011.2hPa SSO 5.2mph /  8.4km/h 9.7mph /  15.6km/h 61% 0in /  0.0mm
05:39 50.4 °F /  10.2 °C 37.2 °F /  2.9 °C 29.9in /  1011.0hPa SO 5.2mph /  8.4km/h 10mph /  16.1km/h 60.6% 0in /  0.0mm
05:44 50 °F /  10 °C 37.2 °F /  2.9 °C 29.9in /  1011.0hPa SO 5.2mph /  8.4km/h 8.1mph /  13km/h 61% 0in /  0.0mm
05:49 49.8 °F /  9.9 °C 36.9 °F /  2.7 °C 29.9in /  1011.0hPa SO 4.5mph /  7.2km/h 8.1mph /  13km/h 60.9% 0in /  0.0mm
05:54 50.2 °F /  10.1 °C 36.9 °F /  2.7 °C 29.9in /  1010.8hPa SSO 4mph /  6.5km/h 8mph /  12.9km/h 60% 0in /  0.0mm
05:59 50.4 °F /  10.2 °C 36.7 °F /  2.6 °C 29.9in /  1010.8hPa SSO 4.5mph /  7.2km/h 8.5mph /  13.7km/h 59.2% 0in /  0.0mm
06:04 50.4 °F /  10.2 °C 36.7 °F /  2.6 °C 29.9in /  1010.8hPa Sur 4.7mph /  7.6km/h 9.2mph /  14.8km/h 59% 0in /  0.0mm
06:09 50.4 °F /  10.2 °C 36.3 °F /  2.4 °C 29.8in /  1010.7hPa SO 5.1mph /  8.2km/h 9mph /  14.5km/h 58.2% 0in /  0.0mm
06:14 50.5 °F /  10.3 °C 36 °F /  2.2 °C 29.8in /  1010.7hPa Sur 5.4mph /  8.7km/h 8mph /  12.9km/h 57.4% 0in /  0.0mm
06:19 50.5 °F /  10.3 °C 36 °F /  2.2 °C 29.8in /  1010.7hPa Sur 5.3mph /  8.5km/h 8.1mph /  13km/h 57.3% 0in /  0.0mm
06:24 50.4 °F /  10.2 °C 36 °F /  2.2 °C 29.8in /  1010.6hPa SSO 5.2mph /  8.4km/h 7.4mph /  11.9km/h 57.8% 0in /  0.0mm
06:29 50.2 °F /  10.1 °C 36 °F /  2.2 °C 29.8in /  1010.6hPa SO 4.9mph /  7.9km/h 7mph /  11.3km/h 58% 0in /  0.0mm
06:34 49.8 °F /  9.9 °C 35.6 °F /  2 °C 29.8in /  1010.6hPa SO 4.7mph /  7.6km/h 8.1mph /  13km/h 58% 0in /  0.0mm
06:39 49.8 °F /  9.9 °C 35.6 °F /  2 °C 29.8in /  1010.6hPa OSO 4mph /  6.5km/h 8mph /  12.9km/h 58% 0in /  0.0mm
06:44 49.8 °F /  9.9 °C 35.6 °F /  2 °C 29.8in /  1010.6hPa SO 3.6mph /  5.8km/h 6mph /  9.7km/h 58% 0in /  0.0mm
06:49 49.6 °F /  9.8 °C 35.4 °F /  1.9 °C 29.8in /  1010.7hPa SO 3.6mph /  5.8km/h 9.2mph /  14.8km/h 58.1% 0in /  0.0mm
06:54 49.5 °F /  9.7 °C 35.2 °F /  1.8 °C 29.8in /  1010.7hPa SSO 3.6mph /  5.8km/h 9mph /  14.5km/h 58% 0in /  0.0mm
06:59 49.5 °F /  9.7 °C 35.2 °F /  1.8 °C 29.8in /  1010.7hPa SO 3.6mph /  5.8km/h 6.9mph /  11.1km/h 58.2% 0in /  0.0mm
07:04 49.1 °F /  9.5 °C 35.4 °F /  1.9 °C 29.8in /  1010.7hPa OSO 3.6mph /  5.8km/h 7mph /  11.3km/h 59% 0in /  0.0mm
07:09 49.1 °F /  9.5 °C 35.1 °F /  1.7 °C 29.8in /  1010.4hPa SSO 4mph /  6.5km/h 7mph /  11.3km/h 58.4% 0in /  0.0mm
07:14 49.5 °F /  9.7 °C 34.9 °F /  1.6 °C 29.8in /  1010.4hPa SO 4.3mph /  6.9km/h 7mph /  11.3km/h 57.4% 0in /  0.0mm
07:19 49.5 °F /  9.7 °C 34.9 °F /  1.6 °C 29.8in /  1010.4hPa SO 4.3mph /  6.9km/h 7.6mph /  12.2km/h 57% 0in /  0.0mm
07:24 49.6 °F /  9.8 °C 34.9 °F /  1.6 °C 29.8in /  1010.4hPa SO 4.3mph /  6.9km/h 8.1mph /  13km/h 56.9% 0in /  0.0mm
07:29 49.6 °F /  9.8 °C 34.7 °F /  1.5 °C 29.8in /  1010.4hPa OSO 4.1mph /  6.6km/h 8mph /  12.9km/h 56.4% 0in /  0.0mm
07:34 49.5 °F /  9.7 °C 34.7 °F /  1.5 °C 29.8in /  1010.5hPa OSO 4mph /  6.5km/h 5.2mph /  8.4km/h 57% 0in /  0.0mm
07:39 49.1 °F /  9.5 °C 34.9 °F /  1.6 °C 29.8in /  1010.5hPa OSO 3.4mph /  5.4km/h 5mph /  8km/h 57.8% 0in /  0.0mm
07:44 48.6 °F /  9.2 °C 34.7 °F /  1.5 °C 29.8in /  1010.5hPa ONO 2.9mph /  4.6km/h 5.9mph /  9.5km/h 58.6% 0in /  0.0mm
07:49 47.8 °F /  8.8 °C 34.7 °F /  1.5 °C 29.8in /  1010.6hPa Oeste 3mph /  4.8km/h 6mph /  9.7km/h 60.1% 0in /  0.0mm
07:54 47.3 °F /  8.5 °C 34.7 °F /  1.5 °C 29.8in /  1010.6hPa OSO 3.1mph /  5km/h 5mph /  8km/h 61.3% 0in /  0.0mm
07:59 46.9 °F /  8.3 °C 34.7 °F /  1.5 °C 29.8in /  1010.6hPa OSO 3mph /  4.8km/h 5mph /  8km/h 62% 0in /  0.0mm
08:04 46.9 °F /  8.3 °C 34.7 °F /  1.5 °C 29.8in /  1010.6hPa SSO 2.9mph /  4.6km/h 6.2mph /  10km/h 62% 0in /  0.0mm
08:09 47.3 °F /  8.5 °C 34.5 °F /  1.4 °C 29.8in /  1010.6hPa SSO 3mph /  4.8km/h 6mph /  9.7km/h 61.1% 0in /  0.0mm
08:14 47.7 °F /  8.7 °C 34.5 °F /  1.4 °C 29.8in /  1010.6hPa Sur 3.1mph /  5km/h 6.4mph /  10.3km/h 60.2% 0in /  0.0mm
08:19 47.8 °F /  8.8 °C 34.3 °F /  1.3 °C 29.8in /  1010.6hPa SSO 3.6mph /  5.8km/h 6mph /  9.7km/h 59.5% 0in /  0.0mm
08:24 48 °F /  8.9 °C 34.3 °F /  1.3 °C 29.8in /  1010.6hPa SO 4mph /  6.5km/h 6mph /  9.7km/h 59% 0in /  0.0mm
08:29 48 °F /  8.9 °C 34.3 °F /  1.3 °C 29.8in /  1010.6hPa SO 3.5mph /  5.6km/h 6mph /  9.7km/h 59% 0in /  0.0mm
08:34 48 °F /  8.9 °C 34.3 °F /  1.3 °C 29.9in /  1010.8hPa SSO 3.1mph /  5km/h 6.4mph /  10.3km/h 59% 0in /  0.0mm
08:39 48.2 °F /  9 °C 34.5 °F /  1.4 °C 29.9in /  1010.8hPa SSO 3.9mph /  6.2km/h 7.6mph /  12.2km/h 59% 0in /  0.0mm
08:44 48.4 °F /  9.1 °C 34.3 °F /  1.3 °C 29.9in /  1010.8hPa SSO 4.3mph /  6.9km/h 8.1mph /  13km/h 58.2% 0in /  0.0mm
08:49 48.7 °F /  9.3 °C 34.5 °F /  1.4 °C 29.9in /  1010.8hPa SO 4.8mph /  7.8km/h 8mph /  12.9km/h 58% 0in /  0.0mm
08:54 48.7 °F /  9.3 °C 34.5 °F /  1.4 °C 29.8in /  1010.7hPa SSO 5.2mph /  8.4km/h 7.6mph /  12.2km/h 57.7% 0in /  0.0mm
08:59 48.9 °F /  9.4 °C 34.9 °F /  1.6 °C 29.8in /  1010.7hPa SSO 5.2mph /  8.4km/h 8.5mph /  13.7km/h 58% 0in /  0.0mm
09:04 48.9 °F /  9.4 °C 35.1 °F /  1.7 °C 29.8in /  1010.7hPa Sur 5.2mph /  8.4km/h 9mph /  14.5km/h 58.5% 0in /  0.0mm
09:09 48.7 °F /  9.3 °C 35.1 °F /  1.7 °C 29.8in /  1010.6hPa Sur 4.7mph /  7.5km/h 6mph /  9.7km/h 59% 0in /  0.0mm
09:14 48.7 °F /  9.3 °C 34.9 °F /  1.6 °C 29.8in /  1010.6hPa SO 4.3mph /  6.9km/h 6mph /  9.7km/h 58.3% 0in /  0.0mm
09:19 49.3 °F /  9.6 °C 35.1 °F /  1.7 °C 29.9in /  1010.9hPa OSO 3.4mph /  5.5km/h 6mph /  9.7km/h 58% 0in /  0.0mm
09:24 49.5 °F /  9.7 °C 35.2 °F /  1.8 °C 29.9in /  1010.9hPa Oeste 2.9mph /  4.7km/h 8.1mph /  13km/h 58.1% 0in /  0.0mm
09:29 49.1 °F /  9.5 °C 35.2 °F /  1.8 °C 29.9in /  1010.9hPa OSO 3.5mph /  5.7km/h 8.1mph /  13km/h 59% 0in /  0.0mm
09:34 48.7 °F /  9.3 °C 35.4 °F /  1.9 °C 29.9in /  1010.9hPa OSO 4mph /  6.5km/h 9.7mph /  15.6km/h 59.8% 0in /  0.0mm
09:39 49.1 °F /  9.5 °C 35.4 °F /  1.9 °C 29.8in /  1010.7hPa Oeste 4.2mph /  6.7km/h 10mph /  16.1km/h 59.2% 0in /  0.0mm
09:44 49.5 °F /  9.7 °C 35.8 °F /  2.1 °C 29.8in /  1010.7hPa ONO 4.3mph /  6.9km/h 8.5mph /  13.7km/h 58.9% 0in /  0.0mm
09:49 50.2 °F /  10.1 °C 35.6 °F /  2 °C 29.9in /  1010.8hPa Oeste 3.9mph /  6.3km/h 9mph /  14.5km/h 56.9% 0in /  0.0mm
09:54 51.4 °F /  10.8 °C 35.4 °F /  1.9 °C 29.9in /  1010.8hPa OSO 3.6mph /  5.8km/h 6.2mph /  10km/h 54.4% 0in /  0.0mm
09:59 52.5 °F /  11.4 °C 36 °F /  2.2 °C 29.9in /  1010.8hPa SSO 3.3mph /  5.3km/h 6.2mph /  10km/h 53.1% 0in /  0.0mm
10:04 52.9 °F /  11.6 °C 37.2 °F /  2.9 °C 29.9in /  1010.8hPa SSE 3.1mph /  5km/h 8.5mph /  13.7km/h 55.2% 0in /  0.0mm
10:09 52.3 °F /  11.3 °C 37.2 °F /  2.9 °C 29.9in /  1010.8hPa SSE 3.7mph /  5.9km/h 9mph /  14.5km/h 56.2% 0in /  0.0mm
10:14 52.2 °F /  11.2 °C 37.6 °F /  3.1 °C 29.9in /  1010.8hPa SSE 4mph /  6.5km/h 8.7mph /  14km/h 57.4% 0in /  0.0mm
10:19 52.2 °F /  11.2 °C 37.9 °F /  3.3 °C 29.9in /  1010.8hPa Sur 4.5mph /  7.2km/h 9.2mph /  14.8km/h 58% 0in /  0.0mm
10:24 53.2 °F /  11.8 °C 38.5 °F /  3.6 °C 29.9in /  1010.8hPa SO 4.7mph /  7.6km/h 9.7mph /  15.6km/h 57.1% 0in /  0.0mm
10:29 55.2 °F /  12.9 °C 39 °F /  3.9 °C 29.9in /  1010.8hPa OSO 5mph /  8.1km/h 10mph /  16.1km/h 54.5% 0in /  0.0mm
10:34 57 °F /  13.9 °C 39.4 °F /  4.1 °C 29.9in /  1010.9hPa OSO 5.2mph /  8.4km/h 12.3mph /  19.8km/h 51.8% 0in /  0.0mm
10:39 58.1 °F /  14.5 °C 39.6 °F /  4.2 °C 29.9in /  1010.9hPa Oeste 5.2mph /  8.4km/h 15.2mph /  24.5km/h 50.2% 0in /  0.0mm
10:44 59.2 °F /  15.1 °C 40.5 °F /  4.7 °C 29.9in /  1010.9hPa ONO 5.2mph /  8.4km/h 15mph /  24.1km/h 49.8% 0in /  0.0mm
10:49 59.7 °F /  15.4 °C 40.5 °F /  4.7 °C 29.9in /  1011.0hPa ONO 5.6mph /  9km/h 13mph /  20.9km/h 49% 0in /  0.0mm
10:54 60.4 °F /  15.8 °C 40.6 °F /  4.8 °C 29.9in /  1011.0hPa ONO 5.9mph /  9.5km/h 13.8mph /  22.2km/h 48.2% 0in /  0.0mm
10:59 60.8 °F /  16 °C 41 °F /  5 °C 29.9in /  1011.0hPa NO 5.5mph /  8.9km/h 14mph /  22.5km/h 48% 0in /  0.0mm
11:04 61.2 °F /  16.2 °C 40.8 °F /  4.9 °C 29.9in /  1011.1hPa ONO 5.2mph /  8.4km/h 10.7mph /  17.2km/h 47% 0in /  0.0mm
11:09 61.5 °F /  16.4 °C 41 °F /  5 °C 29.9in /  1011.1hPa Oeste 4.6mph /  7.4km/h 13mph /  20.9km/h 46.6% 0in /  0.0mm
11:14 61.9 °F /  16.6 °C 40.5 °F /  4.7 °C 29.9in /  1011.1hPa Oeste 4.3mph /  6.9km/h 16.8mph /  27km/h 45.2% 0in /  0.0mm
11:19 62.1 °F /  16.7 °C 40.5 °F /  4.7 °C 29.9in /  1011.2hPa Oeste 7mph /  11.2km/h 17mph /  27.4km/h 45% 0in /  0.0mm
11:24 62.2 °F /  16.8 °C 40.6 °F /  4.8 °C 29.9in /  1011.2hPa SSO 8.5mph /  13.7km/h 15mph /  24.1km/h 45% 0in /  0.0mm
11:29 62.2 °F /  16.8 °C 40.5 °F /  4.7 °C 29.9in /  1011.2hPa Oeste 5.9mph /  9.5km/h 6.2mph /  10km/h 44.9% 0in /  0.0mm
11:34 62.2 °F /  16.8 °C 40.6 °F /  4.8 °C 29.9in /  1011.2hPa SO 4.3mph /  6.9km/h 6mph /  9.7km/h 45% 0in /  0.0mm
11:39 62.4 °F /  16.9 °C 40.6 °F /  4.8 °C 29.9in /  1011.0hPa SSO 3.9mph /  6.3km/h 8.5mph /  13.7km/h 44.7% 0in /  0.0mm
11:44 62.4 °F /  16.9 °C 40.6 °F /  4.8 °C 29.9in /  1011.0hPa SO 3.6mph /  5.8km/h 9mph /  14.5km/h 44.8% 0in /  0.0mm
11:49 62.4 °F /  16.9 °C 40.3 °F /  4.6 °C 29.9in /  1011.0hPa SO 4.7mph /  7.5km/h 10.4mph /  16.7km/h 44% 0in /  0.0mm
11:54 62.8 °F /  17.1 °C 40.3 °F /  4.6 °C 29.9in /  1011.0hPa SO 5.4mph /  8.7km/h 10mph /  16.1km/h 43.6% 0in /  0.0mm
11:59 63.1 °F /  17.3 °C 39.9 °F /  4.4 °C 29.9in /  1011.0hPa OSO 5.8mph /  9.4km/h 10mph /  16.1km/h 42.5% 0in /  0.0mm
12:04 63.7 °F /  17.6 °C 39.7 °F /  4.3 °C 29.9in /  1011.0hPa Oeste 6.2mph /  10km/h 24.2mph /  38.9km/h 41.3% 0in /  0.0mm
12:09 64.6 °F /  18.1 °C 39 °F /  3.9 °C 29.9in /  1011.0hPa ONO 7.3mph /  11.8km/h 24mph /  38.6km/h 38.9% 0in /  0.0mm
12:14 65.1 °F /  18.4 °C 38.8 °F /  3.8 °C 29.9in /  1011.0hPa ONO 8.1mph /  13km/h 24.6mph /  39.6km/h 38% 0in /  0.0mm
12:19 65.1 °F /  18.4 °C 38.7 °F /  3.7 °C 29.9in /  1011.0hPa ONO 11.7mph /  18.9km/h 25.3mph /  40.7km/h 37.7% 0in /  0.0mm
12:24 65.1 °F /  18.4 °C 38.1 °F /  3.4 °C 29.9in /  1011.0hPa Oeste 14mph /  22.5km/h 26.8mph /  43.1km/h 36.8% 0in /  0.0mm
12:29 65.1 °F /  18.4 °C 37.8 °F /  3.2 °C 29.9in /  1011.0hPa ONO 15.1mph /  24.3km/h 31.3mph /  50.4km/h 36.3% 0in /  0.0mm
12:34 65.1 °F /  18.4 °C 37.6 °F /  3.1 °C 29.9in /  1011.0hPa NO 15.9mph /  25.6km/h 31mph /  49.9km/h 36.2% 0in /  0.0mm
12:39 65.1 °F /  18.4 °C 37.4 °F /  3 °C 29.9in /  1011.0hPa NO 15mph /  24.2km/h 28mph /  45.1km/h 35.9% 0in /  0.0mm
12:44 65.1 °F /  18.4 °C 37.4 °F /  3 °C 29.9in /  1011.0hPa ONO 14.5mph /  23.3km/h 26mph /  41.8km/h 36% 0in /  0.0mm
12:49 65.3 °F /  18.5 °C 37.6 °F /  3.1 °C 29.9in /  1011.0hPa ONO 14.6mph /  23.5km/h 27.5mph /  44.3km/h 35.9% 0in /  0.0mm
12:54 65.5 °F /  18.6 °C 37.4 °F /  3 °C 29.9in /  1010.8hPa ONO 14.7mph /  23.7km/h 28mph /  45.1km/h 35.5% 0in /  0.0mm
12:59 65.7 °F /  18.7 °C 37.9 °F /  3.3 °C 29.9in /  1010.8hPa NO 14.2mph /  22.9km/h 26mph /  41.8km/h 36% 0in /  0.0mm
13:04 65.8 °F /  18.8 °C 37.6 °F /  3.1 °C 29.9in /  1010.8hPa ONO 14mph /  22.5km/h 24mph /  38.6km/h 35.2% 0in /  0.0mm
13:09 66.2 °F /  19 °C 37.8 °F /  3.2 °C 29.8in /  1010.6hPa NO 13.7mph /  22.1km/h 28.8mph /  46.3km/h 35% 0in /  0.0mm
14:14 64.9 °F /  18.3 °C 37.9 °F /  3.3 °C 29.8in /  1009.9hPa NO 12.5mph /  20.1km/h 28.8mph /  46.3km/h 37% 0in /  0.0mm
14:19 64.9 °F /  18.3 °C 37.6 °F /  3.1 °C 29.8in /  1009.9hPa ONO 15.3mph /  24.7km/h 32.7mph /  52.6km/h 36.4% 0in /  0.0mm
14:24 65.3 °F /  18.5 °C 37.9 °F /  3.3 °C 29.8in /  1009.8hPa ONO 17mph /  27.4km/h 33mph /  53.1km/h 36.5% 0in /  0.0mm
14:29 65.3 °F /  18.5 °C 37.8 °F /  3.2 °C 29.8in /  1009.8hPa ONO 16.3mph /  26.3km/h 29.9mph /  48.1km/h 36.1% 0in /  0.0mm
14:34 65.3 °F /  18.5 °C 37.9 °F /  3.3 °C 29.8in /  1009.9hPa NO 15.9mph /  25.6km/h 30mph /  48.3km/h 36.7% 0in /  0.0mm
14:39 65.5 °F /  18.6 °C 37.9 °F /  3.3 °C 29.8in /  1009.9hPa ONO 15.7mph /  25.3km/h 27.6mph /  44.4km/h 36% 0in /  0.0mm
14:44 65.7 °F /  18.7 °C 37.9 °F /  3.3 °C 29.8in /  1009.9hPa ONO 15.6mph /  25.1km/h 28mph /  45.1km/h 36% 0in /  0.0mm
14:49 65.7 °F /  18.7 °C 37.9 °F /  3.3 °C 29.8in /  1010.1hPa ONO 15mph /  24.1km/h 22mph /  35.4km/h 36% 0in /  0.0mm
14:54 65.7 °F /  18.7 °C 37.9 °F /  3.3 °C 29.8in /  1010.1hPa ONO 14.5mph /  23.3km/h 27.9mph /  44.9km/h 36% 0in /  0.0mm
14:59 65.5 °F /  18.6 °C 37.8 °F /  3.2 °C 29.8in /  1010.1hPa ONO 15mph /  24.1km/h 31.1mph /  50.1km/h 36% 0in /  0.0mm
15:04 65.5 °F /  18.6 °C 38.3 °F /  3.5 °C 29.8in /  1010.1hPa ONO 15.2mph /  24.5km/h 31mph /  49.9km/h 36.6% 0in /  0.0mm
15:09 65.3 °F /  18.5 °C 38.1 °F /  3.4 °C 29.8in /  1010.1hPa NO 16.2mph /  26km/h 29mph /  46.7km/h 36.7% 0in /  0.0mm
15:14 65.3 °F /  18.5 °C 38.3 °F /  3.5 °C 29.8in /  1010.1hPa ONO 16.8mph /  27km/h 26mph /  41.8km/h 37% 0in /  0.0mm
15:19 65.5 °F /  18.6 °C 38.5 °F /  3.6 °C 29.8in /  1010.2hPa ONO 14.2mph /  22.8km/h 24.6mph /  39.6km/h 37% 0in /  0.0mm
15:24 64.9 °F /  18.3 °C 37.4 °F /  3 °C 29.8in /  1010.2hPa NO 12.5mph /  20.1km/h 32.2mph /  51.8km/h 36% 0in /  0.0mm
15:29 64.8 °F /  18.2 °C 37.8 °F /  3.2 °C 29.8in /  1010.2hPa NO 15.5mph /  25km/h 32mph /  51.5km/h 36.9% 0in /  0.0mm
15:34 64.6 °F /  18.1 °C 37 °F /  2.8 °C 29.8in /  1010.4hPa NO 17.5mph /  28.2km/h 28mph /  45.1km/h 36.2% 0in /  0.0mm
15:39 64.6 °F /  18.1 °C 36.9 °F /  2.7 °C 29.8in /  1010.4hPa NO 15.8mph /  25.5km/h 27mph /  43.5km/h 36% 0in /  0.0mm
15:44 64.6 °F /  18.1 °C 37 °F /  2.8 °C 29.8in /  1010.4hPa ONO 14.7mph /  23.7km/h 25.3mph /  40.7km/h 36% 0in /  0.0mm
15:49 64.2 °F /  17.9 °C 36.7 °F /  2.6 °C 29.8in /  1010.7hPa ONO 15.7mph /  25.2km/h 33.4mph /  53.8km/h 36% 0in /  0.0mm
15:54 64 °F /  17.8 °C 36.5 °F /  2.5 °C 29.8in /  1010.7hPa ONO 16.3mph /  26.2km/h 33.4mph /  53.8km/h 36% 0in /  0.0mm
15:59 63.9 °F /  17.7 °C 36.7 °F /  2.6 °C 29.8in /  1010.7hPa ONO 18.1mph /  29.1km/h 31.1mph /  50.1km/h 36.4% 0in /  0.0mm
16:04 63.9 °F /  17.7 °C 36.3 °F /  2.4 °C 29.8in /  1010.7hPa ONO 19mph /  30.6km/h 36mph /  57.9km/h 36% 0in /  0.0mm
16:09 63.7 °F /  17.6 °C 36.5 °F /  2.5 °C 29.8in /  1010.7hPa Oeste 17.8mph /  28.7km/h 36mph /  57.9km/h 36.4% 0in /  0.0mm
16:14 63.7 °F /  17.6 °C 36.9 °F /  2.7 °C 29.8in /  1010.7hPa Oeste 17mph /  27.4km/h 28mph /  45.1km/h 37% 0in /  0.0mm
16:19 63.7 °F /  17.6 °C 36.9 °F /  2.7 °C 29.8in /  1010.7hPa Oeste 15.5mph /  25km/h 27.6mph /  44.4km/h 37% 0in /  0.0mm
16:24 63.7 °F /  17.6 °C 36.9 °F /  2.7 °C 29.8in /  1010.5hPa Oeste 14.5mph /  23.3km/h 28mph /  45.1km/h 37% 0in /  0.0mm
16:29 63.7 °F /  17.6 °C 36.7 °F /  2.6 °C 29.8in /  1010.5hPa Oeste 13.6mph /  21.9km/h 25.6mph /  41.2km/h 36.6% 0in /  0.0mm
16:34 63.7 °F /  17.6 °C 36.5 °F /  2.5 °C 29.8in /  1010.7hPa Oeste 13mph /  20.9km/h 26mph /  41.8km/h 36.4% 0in /  0.0mm
16:39 63.9 °F /  17.7 °C 37 °F /  2.8 °C 29.8in /  1010.7hPa ONO 12.3mph /  19.8km/h 25mph /  40.2km/h 37% 0in /  0.0mm
16:44 63.9 °F /  17.7 °C 37 °F /  2.8 °C 29.8in /  1010.7hPa Oeste 11.8mph /  19km/h 25.6mph /  41.2km/h 37% 0in /  0.0mm
16:49 63.7 °F /  17.6 °C 36.9 °F /  2.7 °C 29.9in /  1011.0hPa Oeste 11.4mph /  18.4km/h 26mph /  41.8km/h 37% 0in /  0.0mm
16:54 63.7 °F /  17.6 °C 36.9 °F /  2.7 °C 29.9in /  1011.0hPa Oeste 11.2mph /  18km/h 17.3mph /  27.8km/h 37% 0in /  0.0mm
16:59 63.9 °F /  17.7 °C 37 °F /  2.8 °C 29.9in /  1011.0hPa Oeste 8.9mph /  14.3km/h 17.3mph /  27.8km/h 37% 0in /  0.0mm
17:04 63.7 °F /  17.6 °C 37 °F /  2.8 °C 29.9in /  1011.1hPa Oeste 7.6mph /  12.2km/h 25.3mph /  40.7km/h 37% 0in /  0.0mm
17:09 63.7 °F /  17.6 °C 36.9 °F /  2.7 °C 29.9in /  1011.1hPa Oeste 9.4mph /  15.2km/h 25.3mph /  40.7km/h 37% 0in /  0.0mm
17:14 63.3 °F /  17.4 °C 36.5 °F /  2.5 °C 29.9in /  1011.1hPa Oeste 10.7mph /  17.2km/h 25.3mph /  40.7km/h 36.9% 0in /  0.0mm
17:19 63.3 °F /  17.4 °C 36.3 °F /  2.4 °C 29.9in /  1011.1hPa Oeste 12.4mph /  20km/h 32.2mph /  51.8km/h 36.7% 0in /  0.0mm
17:24 63.3 °F /  17.4 °C 35.4 °F /  1.9 °C 29.9in /  1011.1hPa ONO 13.7mph /  22.1km/h 32mph /  51.5km/h 35.3% 0in /  0.0mm
17:29 63.1 °F /  17.3 °C 35.1 °F /  1.7 °C 29.9in /  1011.1hPa ONO 13.6mph /  21.9km/h 27mph /  43.5km/h 35% 0in /  0.0mm
17:34 63 °F /  17.2 °C 35.4 °F /  1.9 °C 29.9in /  1011.3hPa ONO 13.5mph /  21.7km/h 20mph /  32.2km/h 35.7% 0in /  0.0mm
17:39 63.1 °F /  17.3 °C 35.4 °F /  1.9 °C 29.9in /  1011.3hPa Oeste 10.3mph /  16.6km/h 20.7mph /  33.3km/h 35.7% 0in /  0.0mm
17:44 63.1 °F /  17.3 °C 35.1 °F /  1.7 °C 29.9in /  1011.3hPa Oeste 8.1mph /  13km/h 21mph /  33.8km/h 35% 0in /  0.0mm
17:49 63.1 °F /  17.3 °C 35.1 °F /  1.7 °C 29.9in /  1011.5hPa Oeste 9.1mph /  14.6km/h 17mph /  27.4km/h 35% 0in /  0.0mm
17:54 63.1 °F /  17.3 °C 35.1 °F /  1.7 °C 29.9in /  1011.5hPa OSO 9.7mph /  15.6km/h 14mph /  22.5km/h 35.1% 0in /  0.0mm
17:59 63.1 °F /  17.3 °C 35.6 °F /  2 °C 29.9in /  1011.5hPa Oeste 7.3mph /  11.7km/h 18.4mph /  29.6km/h 35.8% 0in /  0.0mm
18:04 63 °F /  17.2 °C 35.6 °F /  2 °C 29.9in /  1011.6hPa Oeste 5.9mph /  9.5km/h 18.4mph /  29.6km/h 36% 0in /  0.0mm
18:09 62.6 °F /  17 °C 35.2 °F /  1.8 °C 29.9in /  1011.6hPa Oeste 7.9mph /  12.7km/h 18mph /  29km/h 36% 0in /  0.0mm
18:14 62.2 °F /  16.8 °C 35.1 °F /  1.7 °C 29.9in /  1011.6hPa OSO 9.2mph /  14.8km/h 21.9mph /  35.2km/h 36% 0in /  0.0mm
18:19 62.2 °F /  16.8 °C 34.9 °F /  1.6 °C 29.9in /  1011.6hPa Oeste 9.8mph /  15.7km/h 26.5mph /  42.6km/h 36% 0in /  0.0mm
18:24 62.1 °F /  16.7 °C 34.7 °F /  1.5 °C 29.9in /  1011.4hPa Oeste 10.2mph /  16.4km/h 26.5mph /  42.6km/h 35.8% 0in /  0.0mm
18:29 62.1 °F /  16.7 °C 34 °F /  1.1 °C 29.9in /  1011.4hPa ONO 12.7mph /  20.5km/h 33.7mph /  54.2km/h 34.8% 0in /  0.0mm
18:34 62.1 °F /  16.7 °C 33.4 °F /  0.8 °C 29.9in /  1011.7hPa ONO 14.5mph /  23.3km/h 34.4mph /  55.4km/h 34% 0in /  0.0mm
18:39 62.1 °F /  16.7 °C 33.4 °F /  0.8 °C 29.9in /  1011.7hPa ONO 17.6mph /  28.4km/h 35mph /  56.3km/h 34.1% 0in /  0.0mm
18:44 61.9 °F /  16.6 °C 33.3 °F /  0.7 °C 29.9in /  1011.7hPa ONO 19.7mph /  31.7km/h 26mph /  41.8km/h 34.1% 0in /  0.0mm
18:49 61.9 °F /  16.6 °C 33.1 °F /  0.6 °C 29.9in /  1012.3hPa ONO 16.3mph /  26.3km/h 23mph /  37km/h 34% 0in /  0.0mm
18:54 61.7 °F /  16.5 °C 33.1 °F /  0.6 °C 29.9in /  1012.3hPa ONO 14mph /  22.5km/h 23mph /  37km/h 34% 0in /  0.0mm
18:59 61.5 °F /  16.4 °C 32.9 °F /  0.5 °C 29.9in /  1012.3hPa ONO 13.7mph /  22km/h 23mph /  37km/h 34% 0in /  0.0mm
19:04 61.3 °F /  16.3 °C 32.7 °F /  0.4 °C 29.9in /  1012.6hPa ONO 13.5mph /  21.7km/h 21mph /  33.8km/h 34.1% 0in /  0.0mm
19:09 61.3 °F /  16.3 °C 32.7 °F /  0.4 °C 29.9in /  1012.6hPa ONO 12.5mph /  20.1km/h 21mph /  33.8km/h 34% 0in /  0.0mm
19:14 61.2 °F /  16.2 °C 32.2 °F /  0.1 °C 29.9in /  1012.6hPa ONO 11.8mph /  19km/h 20.1mph /  32.3km/h 33.5% 0in /  0.0mm
19:19 61.2 °F /  16.2 °C 31.5 °F /  -0.3 °C 29.9in /  1012.9hPa NO 11.8mph /  19km/h 21mph /  33.8km/h 32.7% 0in /  0.0mm
19:24 61 °F /  16.1 °C 30.9 °F /  -0.6 °C 29.9in /  1012.9hPa ONO 11.8mph /  19km/h 21.9mph /  35.2km/h 32% 0in /  0.0mm
19:29 61 °F /  16.1 °C 30.9 °F /  -0.6 °C 29.9in /  1012.9hPa ONO 12.2mph /  19.7km/h 22mph /  35.4km/h 32% 0in /  0.0mm
19:34 61 °F /  16.1 °C 30.9 °F /  -0.6 °C 29.9in /  1013.2hPa ONO 12.5mph /  20.1km/h 21.9mph /  35.2km/h 32% 0in /  0.0mm
19:39 61 °F /  16.1 °C 30.9 °F /  -0.6 °C 29.9in /  1013.2hPa ONO 11.9mph /  19.1km/h 22mph /  35.4km/h 32% 0in /  0.0mm
19:44 60.6 °F /  15.9 °C 30.6 °F /  -0.8 °C 29.9in /  1013.2hPa ONO 11.4mph /  18.4km/h 19.6mph /  31.5km/h 32% 0in /  0.0mm
19:49 60.8 °F /  16 °C 30.4 °F /  -0.9 °C 29.9in /  1013.4hPa ONO 11.3mph /  18.2km/h 20mph /  32.2km/h 31.7% 0in /  0.0mm
19:54 60.8 °F /  16 °C 30 °F /  -1.1 °C 29.9in /  1013.4hPa ONO 11.2mph /  18km/h 19mph /  30.6km/h 31% 0in /  0.0mm
19:59 60.6 °F /  15.9 °C 30.4 °F /  -0.9 °C 29.9in /  1013.4hPa ONO 10.9mph /  17.5km/h 21.3mph /  34.3km/h 31.8% 0in /  0.0mm
20:04 60.6 °F /  15.9 °C 30.6 °F /  -0.8 °C 29.9in /  1013.4hPa ONO 10.7mph /  17.2km/h 21mph /  33.8km/h 32% 0in /  0.0mm
20:09 60.4 °F /  15.8 °C 30.4 °F /  -0.9 °C 29.9in /  1013.4hPa ONO 10.7mph /  17.2km/h 19mph /  30.6km/h 32% 0in /  0.0mm
20:14 60.3 °F /  15.7 °C 30.4 °F /  -0.9 °C 29.9in /  1013.4hPa ONO 10.7mph /  17.2km/h 19mph /  30.6km/h 32% 0in /  0.0mm
20:19 60.3 °F /  15.7 °C 30.4 °F /  -0.9 °C 29.9in /  1013.6hPa ONO 10.1mph /  16.2km/h 17mph /  27.4km/h 32% 0in /  0.0mm
20:24 60.3 °F /  15.7 °C 30.4 °F /  -0.9 °C 29.9in /  1013.6hPa ONO 9.7mph /  15.6km/h 16.8mph /  27km/h 32% 0in /  0.0mm
20:29 60.3 °F /  15.7 °C 30.4 °F /  -0.9 °C 29.9in /  1013.6hPa ONO 9.4mph /  15.1km/h 17.3mph /  27.8km/h 32% 0in /  0.0mm
20:34 60.3 °F /  15.7 °C 30.4 °F /  -0.9 °C 29.9in /  1013.7hPa ONO 9.2mph /  14.8km/h 17mph /  27.4km/h 32% 0in /  0.0mm
20:39 60.3 °F /  15.7 °C 30.4 °F /  -0.9 °C 29.9in /  1013.7hPa ONO 9.2mph /  14.8km/h 17.3mph /  27.8km/h 32% 0in /  0.0mm
20:44 60.3 °F /  15.7 °C 30.2 °F /  -1 °C 29.9in /  1013.7hPa ONO 9.2mph /  14.8km/h 17mph /  27.4km/h 32% 0in /  0.0mm
20:49 60.1 °F /  15.6 °C 30.2 °F /  -1 °C 29.9in /  1013.9hPa ONO 9.2mph /  14.8km/h 16mph /  25.7km/h 32.3% 0in /  0.0mm
20:54 59.7 °F /  15.4 °C 30.6 °F /  -0.8 °C 29.9in /  1013.9hPa ONO 9.2mph /  14.8km/h 13mph /  20.9km/h 33% 0in /  0.0mm
20:59 59.5 °F /  15.3 °C 30.4 °F /  -0.9 °C 29.9in /  1013.9hPa ONO 7.4mph /  11.9km/h 12mph /  19.3km/h 33% 0in /  0.0mm
21:04 59.4 °F /  15.2 °C 30.2 °F /  -1 °C 29.9in /  1014.1hPa ONO 6.4mph /  10.3km/h 12mph /  19.3km/h 33% 0in /  0.0mm
21:09 59.2 °F /  15.1 °C 30.4 °F /  -0.9 °C 29.9in /  1014.1hPa ONO 7.5mph /  12km/h 15.2mph /  24.5km/h 33.5% 0in /  0.0mm
21:14 59.2 °F /  15.1 °C 30.7 °F /  -0.7 °C 29.9in /  1014.1hPa ONO 8.1mph /  13km/h 17mph /  27.4km/h 33.9% 0in /  0.0mm
21:19 59.4 °F /  15.2 °C 30.2 °F /  -1 °C 30in /  1014.2hPa ONO 9.3mph /  15km/h 21.9mph /  35.2km/h 33.1% 0in /  0.0mm
21:24 59.4 °F /  15.2 °C 30.2 °F /  -1 °C 30in /  1014.2hPa ONO 10.2mph /  16.4km/h 22mph /  35.4km/h 33% 0in /  0.0mm
21:29 59.4 °F /  15.2 °C 30.2 °F /  -1 °C 30in /  1014.2hPa ONO 9.6mph /  15.5km/h 15.2mph /  24.5km/h 33% 0in /  0.0mm
21:34 59.4 °F /  15.2 °C 30.2 °F /  -1 °C 30in /  1014.6hPa ONO 9.2mph /  14.8km/h 15mph /  24.1km/h 33.1% 0in /  0.0mm
21:39 59.2 °F /  15.1 °C 30.7 °F /  -0.7 °C 30in /  1014.6hPa ONO 8.6mph /  13.8km/h 14mph /  22.5km/h 33.8% 0in /  0.0mm
21:44 59.2 °F /  15.1 °C 30.7 °F /  -0.7 °C 30in /  1014.6hPa ONO 8.1mph /  13km/h 14mph /  22.5km/h 33.9% 0in /  0.0mm
21:49 59.2 °F /  15.1 °C 30.7 °F /  -0.7 °C 30in /  1014.6hPa ONO 7.7mph /  12.4km/h 12mph /  19.3km/h 34% 0in /  0.0mm
21:54 58.8 °F /  14.9 °C 30.6 °F /  -0.8 °C 30in /  1014.6hPa ONO 7.4mph /  11.9km/h 14.5mph /  23.3km/h 34% 0in /  0.0mm
21:59 58.8 °F /  14.9 °C 30.6 °F /  -0.8 °C 30in /  1014.6hPa ONO 7.1mph /  11.4km/h 15mph /  24.1km/h 34% 0in /  0.0mm
22:04 58.8 °F /  14.9 °C 30.6 °F /  -0.8 °C 30in /  1014.6hPa ONO 6.9mph /  11.1km/h 14mph /  22.5km/h 34% 0in /  0.0mm
22:09 58.8 °F /  14.9 °C 30.6 °F /  -0.8 °C 30in /  1014.6hPa Oeste 6.6mph /  10.6km/h 12mph /  19.3km/h 34% 0in /  0.0mm
22:14 58.8 °F /  14.9 °C 30.6 °F /  -0.8 °C 30in /  1014.6hPa Oeste 6.4mph /  10.3km/h 12.7mph /  20.4km/h 34% 0in /  0.0mm
22:19 58.6 °F /  14.8 °C 30.4 °F /  -0.9 °C 30in /  1014.8hPa ONO 5.7mph /  9.2km/h 13mph /  20.9km/h 34% 0in /  0.0mm
22:24 58.6 °F /  14.8 °C 30.2 °F /  -1 °C 30in /  1014.8hPa ONO 5.2mph /  8.4km/h 8.5mph /  13.7km/h 34% 0in /  0.0mm
22:29 58.5 °F /  14.7 °C 30.2 °F /  -1 °C 30in /  1014.8hPa ONO 4.7mph /  7.5km/h 9.2mph /  14.8km/h 34% 0in /  0.0mm
22:34 58.3 °F /  14.6 °C 30.4 °F /  -0.9 °C 30in /  1014.8hPa ONO 4.3mph /  6.9km/h 12.3mph /  19.8km/h 34.6% 0in /  0.0mm
22:39 58.1 °F /  14.5 °C 30.6 °F /  -0.8 °C 30in /  1014.7hPa NO 5.6mph /  9km/h 13mph /  20.9km/h 35% 0in /  0.0mm
22:44 57.7 °F /  14.3 °C 30.2 °F /  -1 °C 30in /  1014.7hPa NO 6.4mph /  10.3km/h 10.4mph /  16.7km/h 35% 0in /  0.0mm
22:49 57.6 °F /  14.2 °C 30 °F /  -1.1 °C 30in /  1014.7hPa ONO 6.3mph /  10.1km/h 11.5mph /  18.5km/h 35% 0in /  0.0mm
22:54 57.4 °F /  14.1 °C 30.4 °F /  -0.9 °C 30in /  1014.7hPa ONO 6.2mph /  10km/h 12mph /  19.3km/h 35.6% 0in /  0.0mm
22:59 57.4 °F /  14.1 °C 30.6 °F /  -0.8 °C 30in /  1014.7hPa ONO 6mph /  9.7km/h 12mph /  19.3km/h 36% 0in /  0.0mm
23:04 57.2 °F /  14 °C 30.6 °F /  -0.8 °C 30in /  1014.8hPa ONO 5.9mph /  9.5km/h 9.2mph /  14.8km/h 36% 0in /  0.0mm
23:09 57.4 °F /  14.1 °C 30.6 °F /  -0.8 °C 30in /  1014.8hPa ONO 5.6mph /  9km/h 9.7mph /  15.6km/h 36% 0in /  0.0mm
23:14 57.4 °F /  14.1 °C 30.6 °F /  -0.8 °C 30in /  1014.8hPa Oeste 5.4mph /  8.7km/h 11.5mph /  18.5km/h 36% 0in /  0.0mm
23:19 57.4 °F /  14.1 °C 30.4 °F /  -0.9 °C 30in /  1014.9hPa ONO 6.3mph /  10.1km/h 13.7mph /  22km/h 35.7% 0in /  0.0mm
23:24 57.6 °F /  14.2 °C 30 °F /  -1.1 °C 30in /  1014.9hPa ONO 6.9mph /  11.1km/h 15mph /  24.1km/h 35% 0in /  0.0mm
23:29 57.6 °F /  14.2 °C 30 °F /  -1.1 °C 30in /  1014.9hPa Oeste 8.5mph /  13.7km/h 17.3mph /  27.8km/h 35% 0in /  0.0mm
23:34 57.6 °F /  14.2 °C 30 °F /  -1.1 °C 30in /  1014.9hPa ONO 9.7mph /  15.6km/h 17mph /  27.4km/h 35% 0in /  0.0mm
23:39 57.4 °F /  14.1 °C 30 °F /  -1.1 °C 30in /  1014.8hPa ONO 9.1mph /  14.7km/h 13mph /  20.9km/h 35% 0in /  0.0mm
23:44 57.2 °F /  14 °C 29.8 °F /  -1.2 °C 30in /  1014.8hPa ONO 8.7mph /  14km/h 13mph /  20.9km/h 35.2% 0in /  0.0mm
23:49 57 °F /  13.9 °C 30 °F /  -1.1 °C 30in /  1015.0hPa ONO 7.4mph /  11.9km/h 11.5mph /  18.5km/h 35.7% 0in /  0.0mm
23:54 57 °F /  13.9 °C 29.7 °F /  -1.3 °C 30in /  1015.0hPa ONO 6.4mph /  10.3km/h 13.7mph /  22km/h 35.1% 0in /  0.0mm
23:59 57.2 °F /  14 °C 29.8 °F /  -1.2 °C 30in /  1015.0hPa ONO 7.5mph /  12km/h 14mph /  22.5km/h 35% 0in /  0.0mm
Murcia-Puente Tocinos, Espa?a
Compliments of Weather Underground - 3 mb

La estación de MeteoMurcia.com, publica sus datos en los siguientes proyectos:

Weather Underground PWS IMURCIAP2 Meteoclimatic www.awekas.at

W3Counter
Web Analytics